Time;durP1;ratioP1;P1;durP2;ratioP2;P2;SDS_P1;SDS_P2;PMS_P1;PMS_P2;Temp;Humidity;BMP_temperature;BMP_pressure;BME280_temperature;BME280_humidity;BME280_pressure;Samples;Min_cycle;Max_cycle;Signal;HPM_P1;HPM_P2
2023/01/16 00:00:01;;;;;;;6.97;3.50;;;4.90;99.90;;;;;;5071969;28;20040;-69
2023/01/16 00:02:26;;;;;;;4.97;2.50;;;4.90;99.90;;;;;;5065986;28;20032;-69
2023/01/16 00:04:52;;;;;;;7.43;4.25;;;5.00;99.90;;;;;;5062056;28;20728;-69
2023/01/16 00:07:17;;;;;;;10.20;4.35;;;5.00;99.90;;;;;;5060608;28;20453;-69
2023/01/16 00:09:43;;;;;;;10.27;4.00;;;5.00;99.90;;;;;;5061457;28;20036;-70
2023/01/16 00:12:08;;;;;;;12.20;5.50;;;5.00;99.90;;;;;;5061011;28;20029;-69
2023/01/16 00:14:34;;;;;;;9.80;4.05;;;5.00;99.90;;;;;;5062492;28;20028;-71
2023/01/16 00:16:59;;;;;;;12.25;4.97;;;5.00;99.90;;;;;;5060500;28;20053;-69
2023/01/16 00:19:25;;;;;;;12.35;5.68;;;4.90;99.90;;;;;;5060905;28;20501;-70
2023/01/16 00:21:51;;;;;;;9.98;5.28;;;4.90;99.90;;;;;;5066918;28;20074;-69
2023/01/16 00:24:16;;;;;;;10.30;4.15;;;4.80;99.90;;;;;;5062551;28;20392;-70
2023/01/16 00:26:42;;;;;;;7.57;4.10;;;4.70;99.90;;;;;;5065635;28;20479;-70
2023/01/16 00:29:07;;;;;;;12.25;5.45;;;4.70;99.90;;;;;;5065879;28;20441;-70
2023/01/16 00:31:33;;;;;;;8.55;4.13;;;4.70;99.90;;;;;;5062777;28;20379;-69
2023/01/16 00:33:58;;;;;;;14.98;5.75;;;4.70;99.90;;;;;;5061574;28;20057;-69
2023/01/16 00:36:24;;;;;;;16.20;6.13;;;4.70;99.90;;;;;;5060059;28;20025;-70
2023/01/16 00:38:49;;;;;;;11.75;4.75;;;4.60;99.90;;;;;;5061594;28;20089;-68
2023/01/16 00:41:15;;;;;;;12.38;5.82;;;4.60;99.90;;;;;;5067229;28;20518;-69
2023/01/16 00:43:40;;;;;;;13.75;4.95;;;4.60;99.90;;;;;;5062862;28;20056;-70
2023/01/16 00:46:06;;;;;;;14.77;6.03;;;4.60;99.90;;;;;;5067239;28;20070;-69
2023/01/16 00:48:32;;;;;;;16.45;7.65;;;4.50;99.90;;;;;;5066741;28;20033;-69
2023/01/16 00:50:57;;;;;;;15.95;6.30;;;4.50;99.90;;;;;;5071015;28;20024;-70
2023/01/16 00:53:23;;;;;;;16.88;7.20;;;4.50;99.90;;;;;;5080445;28;20032;-69
2023/01/16 00:55:51;;;;;;;18.50;6.97;;;4.40;99.90;;;;;;5075747;28;20036;-69
2023/01/16 00:58:16;;;;;;;14.93;6.97;;;4.40;99.90;;;;;;5075526;28;20452;-69
2023/01/16 01:00:42;;;;;;;12.10;5.90;;;4.40;99.90;;;;;;5075819;28;20075;-69
2023/01/16 01:03:07;;;;;;;16.23;7.47;;;4.40;99.90;;;;;;5065382;28;20045;-69
2023/01/16 01:05:37;;;;;;;17.17;7.72;;;4.30;99.90;;;;;;5058491;28;20046;-70
2023/01/16 01:08:04;;;;;;;16.83;7.47;;;4.30;99.90;;;;;;5073386;28;20095;-69
2023/01/16 01:10:30;;;;;;;14.68;6.30;;;4.30;99.90;;;;;;5062507;28;20029;-69
2023/01/16 01:12:55;;;;;;;14.95;7.32;;;4.20;99.90;;;;;;5068503;28;20442;-69
2023/01/16 01:15:22;;;;;;;20.55;9.45;;;4.20;99.90;;;;;;5073327;28;20028;-70
2023/01/16 01:17:48;;;;;;;15.48;7.72;;;4.20;99.90;;;;;;5070209;28;20413;-69
2023/01/16 01:20:14;;;;;;;19.77;9.00;;;4.20;99.90;;;;;;5064237;28;20147;-70
2023/01/16 01:22:39;;;;;;;17.48;9.23;;;4.20;99.90;;;;;;5075034;28;20115;-69
2023/01/16 01:25:05;;;;;;;13.70;7.55;;;4.10;99.90;;;;;;5042027;28;20032;-70
2023/01/16 01:27:31;;;;;;;18.52;9.00;;;4.10;99.90;;;;;;5064914;28;20029;-70
2023/01/16 01:29:56;;;;;;;15.65;7.80;;;4.10;99.90;;;;;;5075236;28;20028;-70
2023/01/16 01:32:22;;;;;;;20.05;10.15;;;4.10;99.90;;;;;;5065296;28;20061;-69
2023/01/16 01:34:47;;;;;;;17.13;8.40;;;4.00;99.90;;;;;;5063163;28;20048;-69
2023/01/16 01:37:13;;;;;;;12.90;6.10;;;4.00;99.90;;;;;;5072090;28;20033;-70
2023/01/16 01:39:38;;;;;;;16.00;7.47;;;4.00;99.90;;;;;;5071757;28;20035;-70
2023/01/16 01:45:20;;;;;;;19.00;9.57;;;4.00;99.90;;;;;;5073253;28;20047;-71
2023/01/16 01:48:04;;;;;;;20.95;9.25;;;4.00;99.90;;;;;;5075127;28;20024;-71
2023/01/16 01:50:46;;;;;;;23.85;9.77;;;4.00;99.90;;;;;;5056651;28;20060;-71
2023/01/16 01:53:35;;;;;;;13.60;6.55;;;4.00;99.90;;;;;;5070952;28;20031;-70
2023/01/16 01:56:34;;;;;;;17.77;8.40;;;4.00;99.90;;;;;;5052305;28;20083;-69
2023/01/16 01:59:06;;;;;;;16.48;8.23;;;4.00;99.90;;;;;;5056906;28;20045;-68
2023/01/16 02:01:32;;;;;;;18.75;9.10;;;4.00;99.90;;;;;;5071279;28;20120;-70
2023/01/16 02:04:01;;;;;;;19.65;9.30;;;4.00;99.90;;;;;;5059679;28;20111;-68
2023/01/16 02:06:47;;;;;;;19.48;9.30;;;3.90;99.90;;;;;;5074888;28;20472;-70
2023/01/16 02:09:15;;;;;;;19.13;8.63;;;3.90;99.90;;;;;;5058088;28;20361;-70
2023/01/16 02:11:49;;;;;;;18.40;7.53;;;3.90;99.90;;;;;;5071336;28;20115;-70
2023/01/16 02:14:16;;;;;;;17.33;8.57;;;3.80;99.90;;;;;;5063479;28;20062;-70
2023/01/16 02:19:29;;;;;;;19.13;9.65;;;3.90;99.90;;;;;;5072572;28;20078;-69
2023/01/16 02:22:00;;;;;;;18.95;7.07;;;3.90;99.90;;;;;;5059838;28;20427;-68
2023/01/16 02:25:03;;;;;;;16.40;8.40;;;3.90;99.90;;;;;;5064446;28;20036;-68
2023/01/16 02:27:53;;;;;;;18.55;8.43;;;3.90;99.90;;;;;;5057633;28;20048;-69
2023/01/16 02:30:38;;;;;;;20.75;8.23;;;3.90;99.90;;;;;;5064861;28;20403;-71
2023/01/16 02:33:08;;;;;;;21.65;8.73;;;3.90;99.90;;;;;;5041845;28;20360;-71
2023/01/16 02:35:39;;;;;;;18.52;7.50;;;3.80;99.90;;;;;;5057354;28;20138;-69
2023/01/16 02:38:42;;;;;;;23.77;10.75;;;3.80;99.90;;;;;;5066891;28;20063;-69
2023/01/16 02:41:07;;;;;;;;;;;3.90;99.90;;;;;;5006527;28;20048;-71
2023/01/16 02:43:46;;;;;;;25.30;9.68;;;3.90;99.90;;;;;;5057709;28;19916;-71
2023/01/16 02:46:30;;;;;;;27.00;9.88;;;4.00;99.90;;;;;;5066213;28;20453;-69
2023/01/16 02:48:55;;;;;;;19.42;8.25;;;4.00;99.90;;;;;;5068416;28;20460;-71
2023/01/16 02:51:24;;;;;;;20.88;9.13;;;4.10;99.90;;;;;;5061159;28;20048;-68
2023/01/16 02:53:49;;;;;;;29.08;10.60;;;4.20;99.90;;;;;;5060713;28;20028;-71
2023/01/16 02:56:21;;;;;;;31.65;11.77;;;4.20;99.90;;;;;;5069036;28;20020;-71
2023/01/16 02:58:49;;;;;;;22.55;9.43;;;4.30;99.90;;;;;;5060986;28;20047;-70
2023/01/16 03:01:18;;;;;;;26.92;12.45;;;4.30;99.90;;;;;;5068846;28;20021;-70
2023/01/16 03:03:53;;;;;;;23.40;10.85;;;4.30;99.90;;;;;;5053502;28;20033;-69
2023/01/16 03:06:36;;;;;;;30.92;12.70;;;4.30;99.90;;;;;;5035787;28;20037;-71
2023/01/16 03:09:23;;;;;;;27.48;12.10;;;4.30;99.90;;;;;;5067561;28;20028;-71
2023/01/16 03:12:19;;;;;;;27.42;10.73;;;4.40;99.90;;;;;;5071108;28;20024;-71
2023/01/16 03:15:03;;;;;;;30.02;12.32;;;4.40;99.90;;;;;;5073283;28;20024;-71
2023/01/16 03:18:09;;;;;;;30.75;11.57;;;4.40;99.90;;;;;;5070272;28;20124;-71
2023/01/16 03:20:59;;;;;;;26.27;11.07;;;4.40;99.90;;;;;;5064699;28;20066;-69
2023/01/16 03:23:53;;;;;;;25.55;10.20;;;4.40;99.90;;;;;;5056512;28;20064;-71
2023/01/16 03:26:38;;;;;;;28.23;12.63;;;4.40;99.90;;;;;;5061106;28;20029;-70
2023/01/16 03:29:18;;;;;;;25.80;11.30;;;4.40;99.90;;;;;;5042094;28;20096;-70
2023/01/16 03:31:58;;;;;;;26.05;10.80;;;4.40;99.90;;;;;;5064922;28;20021;-71
2023/01/16 03:34:34;;;;;;;27.35;10.63;;;4.50;99.90;;;;;;5063533;28;20024;-71
2023/01/16 03:37:09;;;;;;;25.38;10.07;;;4.50;99.90;;;;;;5067541;28;20094;-68
2023/01/16 03:39:40;;;;;;;23.85;9.88;;;4.50;99.90;;;;;;5069790;28;20031;-69
2023/01/16 03:42:13;;;;;;;24.33;9.93;;;4.50;99.90;;;;;;5063627;28;20024;-71
2023/01/16 03:44:49;;;;;;;24.40;8.85;;;4.50;99.90;;;;;;5072116;28;20044;-71
2023/01/16 03:47:20;;;;;;;23.65;9.55;;;4.50;99.90;;;;;;5058836;28;20036;-69
2023/01/16 03:49:50;;;;;;;22.63;8.88;;;4.50;99.90;;;;;;5057608;28;20027;-71
2023/01/16 03:52:19;;;;;;;24.65;9.43;;;4.50;99.90;;;;;;5064313;28;20499;-70
2023/01/16 03:54:48;;;;;;;16.63;7.07;;;4.50;99.90;;;;;;5067044;28;20036;-71
2023/01/16 03:57:20;;;;;;;20.65;7.25;;;4.50;99.90;;;;;;5056331;28;20047;-71
2023/01/16 03:59:46;;;;;;;22.13;8.13;;;4.50;99.90;;;;;;5068441;28;20075;-69
2023/01/16 04:02:21;;;;;;;19.73;7.82;;;4.50;99.90;;;;;;5060921;28;20032;-70
2023/01/16 04:04:57;;;;;;;18.27;7.00;;;4.50;99.90;;;;;;5060438;28;20083;-68
2023/01/16 04:07:35;;;;;;;21.65;8.00;;;4.40;99.90;;;;;;5069832;28;20047;-69
2023/01/16 04:10:05;;;;;;;20.27;7.50;;;4.50;99.90;;;;;;5060681;28;20021;-71
2023/01/16 04:12:44;;;;;;;17.58;6.85;;;4.50;99.90;;;;;;5058702;28;20033;-71
2023/01/16 04:15:10;;;;;;;20.30;7.95;;;4.50;99.90;;;;;;5063011;28;20029;-69
2023/01/16 04:17:39;;;;;;;23.52;8.90;;;4.50;99.90;;;;;;5068886;28;20392;-70
2023/01/16 04:20:07;;;;;;;20.77;8.50;;;4.50;99.90;;;;;;5059590;28;20419;-70
2023/01/16 04:22:32;;;;;;;21.33;8.10;;;4.50;99.90;;;;;;5066411;28;20078;-70
2023/01/16 04:25:02;;;;;;;26.33;9.07;;;4.50;99.90;;;;;;5070740;28;20099;-68
2023/01/16 04:27:27;;;;;;;22.23;8.48;;;4.50;99.90;;;;;;5071445;28;20034;-69
2023/01/16 04:29:53;;;;;;;21.88;8.88;;;4.50;99.90;;;;;;5066949;28;20121;-69
2023/01/16 04:32:19;;;;;;;19.25;8.65;;;4.50;99.90;;;;;;5061632;28;20441;-69
2023/01/16 04:34:44;;;;;;;20.45;8.63;;;4.50;99.90;;;;;;5062715;28;20460;-71
2023/01/16 04:37:13;;;;;;;22.08;8.77;;;4.50;99.90;;;;;;5073302;28;20078;-69
2023/01/16 04:39:40;;;;;;;22.38;8.45;;;4.50;99.90;;;;;;5069172;28;20107;-70
2023/01/16 04:42:05;;;;;;;20.88;8.00;;;4.50;99.90;;;;;;5064289;28;20078;-70
2023/01/16 04:44:31;;;;;;;19.30;8.10;;;4.50;99.90;;;;;;5062844;28;20037;-69
2023/01/16 04:46:57;;;;;;;30.90;8.75;;;4.50;99.90;;;;;;5046174;28;20358;-70
2023/01/16 04:49:22;;;;;;;26.02;9.13;;;4.50;99.90;;;;;;5064989;28;20044;-69
2023/01/16 04:51:48;;;;;;;32.28;9.82;;;4.50;99.90;;;;;;5057067;28;20052;-71
2023/01/16 04:54:15;;;;;;;51.92;9.90;;;4.50;99.90;;;;;;5075588;28;20037;-70
2023/01/16 04:56:41;;;;;;;42.58;9.27;;;4.50;99.90;;;;;;5074925;28;20024;-68
2023/01/16 04:59:07;;;;;;;18.00;6.28;;;4.60;99.90;;;;;;5058043;28;20035;-69
2023/01/16 05:01:34;;;;;;;20.30;5.45;;;4.50;99.90;;;;;;5059633;28;20116;-70
2023/01/16 05:04:05;;;;;;;20.80;6.10;;;4.50;99.90;;;;;;5071120;28;20459;-69
2023/01/16 05:06:31;;;;;;;20.08;5.70;;;4.60;99.90;;;;;;5061946;28;20117;-70
2023/01/16 05:08:57;;;;;;;14.50;5.50;;;4.60;99.90;;;;;;5065622;28;20121;-69
2023/01/16 05:11:22;;;;;;;15.52;5.95;;;4.70;99.90;;;;;;5057997;28;20071;-68
2023/01/16 05:13:48;;;;;;;21.15;6.40;;;4.70;99.90;;;;;;5063641;28;20615;-70
2023/01/16 05:16:14;;;;;;;15.68;5.50;;;4.70;99.90;;;;;;5063722;28;20036;-71
2023/01/16 05:18:40;;;;;;;52.90;9.48;;;4.70;99.90;;;;;;5060657;28;20417;-70
2023/01/16 05:21:05;;;;;;;15.65;5.68;;;4.80;99.90;;;;;;5059968;28;20377;-71
2023/01/16 05:23:35;;;;;;;17.00;5.70;;;4.80;99.90;;;;;;5062940;28;20147;-71
2023/01/16 05:26:01;;;;;;;18.13;5.63;;;4.70;99.90;;;;;;5066699;28;20017;-68
2023/01/16 05:28:27;;;;;;;26.33;5.90;;;4.70;99.90;;;;;;5060620;28;20366;-69
2023/01/16 05:30:52;;;;;;;20.80;5.68;;;4.70;99.90;;;;;;5059056;28;20025;-68
2023/01/16 05:33:18;;;;;;;11.68;4.70;;;4.70;99.90;;;;;;5059435;28;20039;-70
2023/01/16 05:35:47;;;;;;;15.32;4.03;;;4.70;99.90;;;;;;5059765;28;20024;-68
2023/01/16 05:38:14;;;;;;;72.32;8.48;;;4.60;99.90;;;;;;5071957;28;20024;-71
2023/01/16 05:40:40;;;;;;;54.83;6.80;;;4.60;99.90;;;;;;5063737;28;20461;-70
2023/01/16 05:43:05;;;;;;;10.82;3.13;;;4.60;99.90;;;;;;5053101;28;20044;-69
2023/01/16 05:45:31;;;;;;;17.65;4.28;;;4.60;99.90;;;;;;5058699;28;20032;-71
2023/01/16 05:47:57;;;;;;;31.27;5.18;;;4.60;99.90;;;;;;5069637;28;20025;-71
2023/01/16 05:50:23;;;;;;;56.13;6.53;;;4.60;99.90;;;;;;5059317;28;20024;-70
2023/01/16 05:52:49;;;;;;;8.23;2.47;;;4.60;99.90;;;;;;5070822;28;20422;-70
2023/01/16 05:55:15;;;;;;;10.25;2.80;;;4.60;99.90;;;;;;5060298;28;20043;-69
2023/01/16 05:57:41;;;;;;;16.13;3.83;;;4.70;99.90;;;;;;5041344;28;20021;-70
2023/01/16 06:00:07;;;;;;;7.25;2.50;;;4.70;99.90;;;;;;5057839;28;20036;-70
2023/01/16 06:02:33;;;;;;;10.55;3.92;;;4.70;99.90;;;;;;5070009;28;20365;-69
2023/01/16 06:04:58;;;;;;;10.32;2.80;;;4.70;99.90;;;;;;5066511;28;20037;-69
2023/01/16 06:07:24;;;;;;;13.13;2.92;;;4.80;99.90;;;;;;5070862;28;20024;-71
2023/01/16 06:09:49;;;;;;;7.90;3.20;;;4.80;99.90;;;;;;5060993;28;20107;-71
2023/01/16 06:12:16;;;;;;;9.25;3.40;;;4.80;99.90;;;;;;5064496;28;20040;-71
2023/01/16 06:14:42;;;;;;;11.23;3.25;;;4.90;99.90;;;;;;5070613;28;20120;-71
2023/01/16 06:17:08;;;;;;;15.52;2.95;;;5.00;99.90;;;;;;5072475;28;20115;-69
2023/01/16 06:19:34;;;;;;;14.02;3.38;;;5.10;99.90;;;;;;5072759;28;20028;-70
2023/01/16 06:21:59;;;;;;;13.65;2.53;;;5.20;99.90;;;;;;5074637;28;20111;-69
2023/01/16 06:24:25;;;;;;;14.70;3.35;;;5.30;99.90;;;;;;5064435;28;20095;-71
2023/01/16 06:26:50;;;;;;;25.38;4.18;;;5.30;99.90;;;;;;5061921;28;20017;-69
2023/01/16 06:29:16;;;;;;;15.23;3.03;;;5.40;99.90;;;;;;5055796;28;20029;-71
2023/01/16 06:31:42;;;;;;;14.68;3.53;;;5.40;99.90;;;;;;5071098;28;20468;-70
2023/01/16 06:34:07;;;;;;;17.88;3.60;;;5.50;99.90;;;;;;5062115;28;20024;-71
2023/01/16 06:36:33;;;;;;;14.15;3.97;;;5.60;99.90;;;;;;5063577;28;20033;-71
2023/01/16 06:38:58;;;;;;;14.98;4.28;;;5.60;99.90;;;;;;5069305;28;20376;-69
2023/01/16 06:41:24;;;;;;;10.20;2.63;;;5.60;99.90;;;;;;5057667;28;20025;-68
2023/01/16 06:43:49;;;;;;;20.25;5.30;;;5.50;99.90;;;;;;5069546;28;20099;-70
2023/01/16 06:46:15;;;;;;;17.25;4.22;;;5.50;99.90;;;;;;5063200;28;20032;-68
2023/01/16 06:48:43;;;;;;;18.42;3.67;;;5.50;99.90;;;;;;5061900;28;20134;-69
2023/01/16 06:51:10;;;;;;;7.80;2.60;;;5.50;99.90;;;;;;5069279;28;20064;-68
2023/01/16 06:53:36;;;;;;;11.70;3.28;;;5.50;99.90;;;;;;5039601;28;20031;-70
2023/01/16 06:56:03;;;;;;;14.07;3.05;;;5.50;99.90;;;;;;5066963;28;20063;-69
2023/01/16 06:58:28;;;;;;;12.70;2.65;;;5.40;99.90;;;;;;5064308;28;20131;-71
2023/01/16 07:00:55;;;;;;;12.02;2.83;;;5.40;99.90;;;;;;5060042;28;20443;-70
2023/01/16 07:03:21;;;;;;;11.02;2.97;;;5.30;99.90;;;;;;5070320;28;20044;-70
2023/01/16 07:05:47;;;;;;;6.55;2.30;;;5.30;99.90;;;;;;5058728;28;20419;-71
2023/01/16 07:08:13;;;;;;;14.73;3.30;;;5.30;99.90;;;;;;5066114;28;20039;-70
2023/01/16 07:10:39;;;;;;;13.40;3.35;;;5.30;99.90;;;;;;5073735;28;20021;-70
2023/01/16 07:13:05;;;;;;;10.55;2.90;;;5.20;99.90;;;;;;5058721;28;20126;-70
2023/01/16 07:23:50;;;;;;;15.43;3.13;;;5.20;99.90;;;;;;5058238;28;20039;-70
2023/01/16 07:26:19;;;;;;;9.75;2.60;;;5.20;99.90;;;;;;5065042;28;20033;-71
2023/01/16 07:28:45;;;;;;;16.50;4.65;;;5.20;99.90;;;;;;5066187;28;20028;-71
2023/01/16 07:31:11;;;;;;;12.23;3.30;;;5.20;99.90;;;;;;5057268;28;20024;-71
2023/01/16 07:33:37;;;;;;;10.02;2.42;;;5.20;99.90;;;;;;5069933;28;20029;-71
2023/01/16 07:36:03;;;;;;;11.93;3.08;;;5.10;99.90;;;;;;5042108;28;20379;-71
2023/01/16 07:38:29;;;;;;;13.60;4.80;;;5.20;99.90;;;;;;5062966;28;20025;-71
2023/01/16 07:40:54;;;;;;;8.27;2.50;;;5.20;99.90;;;;;;5067390;28;20085;-72
2023/01/16 07:43:20;;;;;;;8.32;3.00;;;5.10;99.90;;;;;;5056647;28;20144;-71
2023/01/16 07:45:51;;;;;;;10.45;2.95;;;5.10;99.90;;;;;;5068106;28;20056;-72
2023/01/16 07:48:21;;;;;;;9.20;2.83;;;5.10;99.90;;;;;;5044146;28;20019;-71
2023/01/16 07:50:55;;;;;;;9.48;2.47;;;5.00;99.90;;;;;;5060248;28;20064;-71
2023/01/16 07:53:22;;;;;;;6.68;2.75;;;5.00;99.90;;;;;;5069493;28;20028;-71
2023/01/16 07:55:50;;;;;;;8.23;2.90;;;5.00;99.90;;;;;;5055824;28;20444;-71
2023/01/16 07:58:16;;;;;;;13.73;2.67;;;4.90;99.90;;;;;;5068670;28;20075;-71
2023/01/16 08:00:42;;;;;;;5.68;2.40;;;5.00;99.90;;;;;;5069931;28;20153;-72
2023/01/16 08:03:07;;;;;;;8.25;3.00;;;4.90;99.90;;;;;;5063852;28;20036;-71
2023/01/16 08:05:33;;;;;;;8.00;2.45;;;5.00;99.90;;;;;;5062374;28;20029;-71
2023/01/16 08:07:58;;;;;;;9.10;3.08;;;4.90;99.90;;;;;;5064557;28;20379;-71
2023/01/16 08:10:24;;;;;;;7.13;2.70;;;4.90;99.90;;;;;;5063530;28;20075;-72
2023/01/16 08:12:50;;;;;;;5.05;2.25;;;4.90;99.90;;;;;;5062253;28;20024;-71
2023/01/16 08:15:15;;;;;;;5.40;2.60;;;4.80;99.90;;;;;;5061407;28;20103;-71
2023/01/16 08:17:41;;;;;;;11.25;2.70;;;4.80;99.90;;;;;;5061290;28;20465;-71
2023/01/16 08:20:08;;;;;;;6.15;1.88;;;4.80;99.90;;;;;;5062512;28;20463;-72
2023/01/16 08:22:33;;;;;;;5.38;2.28;;;4.70;99.90;;;;;;5060503;28;20025;-72
2023/01/16 08:24:59;;;;;;;4.40;1.85;;;4.70;99.90;;;;;;5065419;28;20082;-72
2023/01/16 08:27:24;;;;;;;5.07;2.10;;;4.60;99.90;;;;;;5046933;28;20449;-71
2023/01/16 08:29:50;;;;;;;6.78;2.17;;;4.60;99.90;;;;;;5060445;28;20028;-72
2023/01/16 08:32:15;;;;;;;6.88;2.58;;;4.60;99.90;;;;;;5062911;28;20024;-71
2023/01/16 08:34:42;;;;;;;4.68;2.13;;;4.60;99.90;;;;;;5066248;28;20024;-72
2023/01/16 08:37:10;;;;;;;5.53;1.90;;;4.50;99.90;;;;;;5066382;28;20487;-72
2023/01/16 08:39:36;;;;;;;7.55;2.10;;;4.50;99.90;;;;;;5068977;28;20036;-72
2023/01/16 08:53:03;;;;;;;4.38;1.80;;;4.60;99.90;;;;;;5069598;28;20042;-72
2023/01/16 08:55:29;;;;;;;6.30;2.38;;;4.60;99.90;;;;;;5071548;28;20048;-73
2023/01/16 08:57:58;;;;;;;6.53;2.05;;;4.60;99.90;;;;;;5072172;28;20452;-73
2023/01/16 09:00:24;;;;;;;9.73;3.22;;;4.60;99.90;;;;;;5064528;28;20040;-73
2023/01/16 09:02:50;;;;;;;4.07;1.92;;;4.60;99.90;;;;;;5067916;28;20032;-72
2023/01/16 09:05:16;;;;;;;7.03;2.20;;;4.60;99.90;;;;;;5071830;28;20029;-72
2023/01/16 09:07:41;;;;;;;6.22;1.83;;;4.60;99.90;;;;;;5069809;28;20037;-72
2023/01/16 09:10:08;;;;;;;9.88;2.30;;;4.70;99.90;;;;;;5072423;28;20059;-72
2023/01/16 09:15:17;;;;;;;6.20;2.38;;;4.70;99.90;;;;;;5076154;28;20082;-72
2023/01/16 09:17:43;;;;;;;12.07;3.28;;;4.70;99.90;;;;;;5076031;28;20044;-72
2023/01/16 09:20:09;;;;;;;11.00;3.38;;;4.70;99.90;;;;;;5075728;28;20066;-72
2023/01/16 09:22:35;;;;;;;5.53;2.53;;;4.70;99.90;;;;;;5076063;28;20028;-72
2023/01/16 09:25:00;;;;;;;5.93;2.95;;;4.70;99.90;;;;;;5075867;28;20029;-72
2023/01/16 09:27:26;;;;;;;7.97;3.05;;;4.70;99.90;;;;;;5075725;28;20024;-72
2023/01/16 09:29:52;;;;;;;12.82;3.47;;;4.70;99.90;;;;;;5075858;28;20071;-73
2023/01/16 09:32:18;;;;;;;8.82;3.20;;;4.70;99.90;;;;;;5075847;28;20024;-73
2023/01/16 09:34:44;;;;;;;6.22;3.10;;;4.70;99.90;;;;;;5075877;28;20032;-73
2023/01/16 09:37:10;;;;;;;9.85;3.63;;;4.70;99.90;;;;;;5057948;28;20020;-72
2023/01/16 09:39:36;;;;;;;5.85;2.85;;;4.70;99.90;;;;;;5076095;28;20021;-73
2023/01/16 09:45:23;;;;;;;7.55;4.10;;;4.70;99.90;;;;;;5075755;28;20044;-73
2023/01/16 09:47:54;;;;;;;7.63;3.85;;;4.80;99.90;;;;;;5075896;28;20021;-73
2023/01/16 09:50:28;;;;;;;8.23;3.83;;;4.70;99.90;;;;;;5075629;28;20055;-73
2023/01/16 09:58:36;;;;;;;9.90;4.40;;;4.80;99.90;;;;;;5075217;28;20078;-73
2023/01/16 10:01:06;;;;;;;11.52;4.38;;;4.90;99.90;;;;;;5075510;28;20086;-73
2023/01/16 10:03:33;;;;;;;8.00;3.70;;;4.90;99.90;;;;;;5075426;28;20033;-73
2023/01/16 10:06:25;;;;;;;10.70;3.85;;;4.90;99.90;;;;;;5075437;28;20079;-73
2023/01/16 10:09:14;;;;;;;10.02;4.05;;;5.00;99.90;;;;;;5074566;28;20033;-73
2023/01/16 10:11:45;;;;;;;8.93;4.13;;;5.00;99.90;;;;;;5074626;28;20032;-73
2023/01/16 10:14:24;;;;;;;10.48;4.55;;;5.10;99.90;;;;;;5074813;28;20031;-73
2023/01/16 10:17:29;;;;;;;13.00;4.65;;;5.10;99.90;;;;;;5065362;28;20049;-73
2023/01/16 10:20:04;;;;;;;10.60;4.80;;;5.20;99.90;;;;;;5035323;28;20034;-73
2023/01/16 10:22:51;;;;;;;12.32;4.40;;;5.20;99.90;;;;;;5035075;28;20029;-74
2023/01/16 10:25:28;;;;;;;12.23;5.10;;;5.30;99.90;;;;;;5033946;28;20037;-74
2023/01/16 10:28:04;;;;;;;15.50;4.18;;;5.30;99.90;;;;;;5034924;28;20488;-75
2023/01/16 10:30:44;;;;;;;10.20;4.60;;;5.30;99.90;;;;;;5034938;28;20022;-74
2023/01/16 10:33:18;;;;;;;8.63;4.25;;;5.40;99.90;;;;;;5035118;28;20033;-74
2023/01/16 10:35:48;;;;;;;11.05;4.63;;;5.40;99.90;;;;;;5034601;28;20029;-75
2023/01/16 10:38:42;;;;;;;11.77;5.60;;;5.40;99.90;;;;;;5034455;28;20461;-74
2023/01/16 10:49:55;;;;;;;8.77;3.42;;;5.40;99.90;;;;;;5034340;28;20083;-74
2023/01/16 10:52:21;;;;;;;8.45;3.97;;;5.40;99.90;;;;;;5034618;28;20458;-74
2023/01/16 10:54:48;;;;;;;11.05;3.88;;;5.30;99.90;;;;;;5034338;28;20064;-75
2023/01/16 10:57:18;;;;;;;9.57;3.70;;;5.30;99.90;;;;;;5034464;28;20119;-75
2023/01/16 10:59:50;;;;;;;5.18;2.45;;;5.30;99.90;;;;;;5034535;28;20120;-75
2023/01/16 11:02:24;;;;;;;;;;;5.40;99.90;;;;;;5034690;28;20021;-75
2023/01/16 11:04:51;;;;;;;7.30;3.42;;;5.40;99.90;;;;;;5034373;28;19912;-75
2023/01/16 11:07:22;;;;;;;5.43;3.38;;;5.40;99.90;;;;;;5033927;28;20021;-75
2023/01/16 11:09:48;;;;;;;11.18;3.63;;;5.40;99.90;;;;;;5047282;28;20037;-74
2023/01/16 11:18:40;;;;;;;29.15;4.85;;;5.50;99.90;;;;;;5054243;28;20130;-75
2023/01/16 11:21:24;;;;;;;58.47;6.93;;;5.50;99.90;;;;;;4972459;28;20069;-75
2023/01/16 11:24:16;;;;;;;4.72;2.50;;;5.50;99.90;;;;;;5046856;28;20041;-75
2023/01/16 11:27:00;;;;;;;16.42;3.25;;;5.40;99.90;;;;;;5053683;28;20021;-75
2023/01/16 11:29:34;;;;;;;115.72;12.23;;;5.40;99.90;;;;;;5053650;28;20078;-75
2023/01/16 11:32:05;;;;;;;7.38;2.40;;;5.40;99.90;;;;;;5053239;28;20385;-75
2023/01/16 11:34:31;;;;;;;4.75;2.30;;;5.30;99.90;;;;;;5052820;28;20058;-75
2023/01/16 11:37:00;;;;;;;4.95;2.20;;;5.30;99.90;;;;;;5044772;28;20029;-75
2023/01/16 11:39:28;;;;;;;19.02;3.30;;;5.30;99.90;;;;;;5033336;28;20025;-75
2023/01/16 11:41:56;;;;;;;5.78;2.40;;;5.30;99.90;;;;;;5033415;28;20022;-75
2023/01/16 11:47:17;;;;;;;7.72;2.38;;;5.30;99.90;;;;;;5033702;28;20044;-75
2023/01/16 11:49:47;;;;;;;;;;;5.40;99.90;;;;;;5034131;28;20037;-75
2023/01/16 11:52:26;;;;;;;3.03;1.92;;;5.40;99.90;;;;;;5033565;28;19909;-76
2023/01/16 11:54:53;;;;;;;7.32;2.65;;;5.40;99.90;;;;;;5033361;28;20362;-75
2023/01/16 11:57:42;;;;;;;6.03;2.85;;;5.40;99.90;;;;;;5032921;28;20029;-75
2023/01/16 12:00:26;;;;;;;17.17;3.55;;;5.40;99.90;;;;;;5032655;28;20473;-75
2023/01/16 12:03:39;;;;;;;7.30;2.80;;;5.40;99.90;;;;;;5033433;28;20029;-75
2023/01/16 12:06:19;;;;;;;7.95;2.92;;;5.40;99.90;;;;;;5045186;28;20067;-75
2023/01/16 12:09:03;;;;;;;6.20;2.63;;;5.50;99.90;;;;;;5032924;28;20021;-75
2023/01/16 12:11:42;;;;;;;7.22;3.10;;;5.40;99.90;;;;;;5039902;28;20029;-75
2023/01/16 12:14:25;;;;;;;8.50;3.28;;;5.40;99.90;;;;;;5036178;28;20473;-75
2023/01/16 12:17:17;;;;;;;7.63;3.45;;;5.40;99.90;;;;;;5060981;28;20048;-76
2023/01/16 12:20:13;;;;;;;13.95;3.97;;;5.50;99.90;;;;;;5072101;28;20093;-75
2023/01/16 12:23:12;;;;;;;7.00;2.70;;;5.50;99.90;;;;;;5060743;28;20059;-75
2023/01/16 12:25:40;;;;;;;8.85;3.13;;;5.60;99.90;;;;;;5059199;28;20043;-75
2023/01/16 12:28:29;;;;;;;8.95;3.30;;;5.60;99.90;;;;;;5061463;28;20032;-76
2023/01/16 12:31:35;;;;;;;8.35;3.95;;;5.60;99.90;;;;;;5065590;28;20081;-75
2023/01/16 12:34:18;;;;;;;11.18;4.05;;;5.70;99.90;;;;;;5062396;28;20460;-76
2023/01/16 12:37:08;;;;;;;7.68;3.33;;;5.80;99.90;;;;;;5071416;28;20111;-75
2023/01/16 12:39:54;;;;;;;9.45;3.80;;;5.80;99.90;;;;;;5058309;28;20054;-75
2023/01/16 12:45:52;;;;;;;585.65;95.20;;;6.00;99.90;;;;;;5057442;28;20141;-76
2023/01/16 12:48:40;;;;;;;53.00;7.20;;;6.00;99.90;;;;;;5060745;28;20506;-75
2023/01/16 12:51:20;;;;;;;11.90;4.53;;;6.10;99.90;;;;;;5068541;28;20033;-76
2023/01/16 12:54:10;;;;;;;24.67;4.95;;;6.10;99.90;;;;;;5070560;28;20051;-75
2023/01/16 12:56:35;;;;;;;7.85;3.53;;;6.10;99.90;;;;;;5071708;28;20078;-75
2023/01/16 12:59:14;;;;;;;9.50;4.05;;;6.10;99.90;;;;;;5070563;28;20036;-76
2023/01/16 13:01:43;;;;;;;8.27;3.65;;;6.10;99.90;;;;;;5064610;28;20060;-76
2023/01/16 13:04:19;;;;;;;62.28;9.68;;;6.10;99.90;;;;;;5062754;28;20047;-76
2023/01/16 13:06:52;;;;;;;8.85;3.85;;;6.20;99.90;;;;;;5071207;28;20094;-75
2023/01/16 13:09:37;;;;;;;7.00;3.35;;;6.20;99.90;;;;;;5056215;28;20020;-76
2023/01/16 13:15:26;;;;;;;28.80;4.78;;;6.30;99.90;;;;;;5068586;28;20035;-76
2023/01/16 13:18:21;;;;;;;7.68;3.50;;;6.30;99.90;;;;;;5052905;28;20497;-76
2023/01/16 13:20:55;;;;;;;10.77;4.00;;;6.30;99.90;;;;;;5068221;28;20028;-76
2023/01/16 13:23:25;;;;;;;14.10;5.88;;;6.30;99.90;;;;;;5062824;28;20047;-75
2023/01/16 13:25:57;;;;;;;9.38;3.97;;;6.40;99.90;;;;;;5063481;28;20029;-75
2023/01/16 13:28:45;;;;;;;14.27;6.38;;;6.50;99.90;;;;;;5060294;28;20036;-75
2023/01/16 13:31:35;;;;;;;9.27;3.92;;;6.50;99.90;;;;;;5063055;28;20588;-75
2023/01/16 13:34:09;;;;;;;9.68;4.68;;;6.50;99.90;;;;;;5051151;28;20132;-75
2023/01/16 13:37:03;;;;;;;105.05;17.67;;;6.50;99.90;;;;;;5045021;28;20025;-75
2023/01/16 13:39:37;;;;;;;11.73;4.18;;;6.50;99.90;;;;;;5056636;28;20024;-75
2023/01/16 13:42:07;;;;;;;12.75;4.65;;;6.60;99.90;;;;;;5070958;28;20483;-75
2023/01/16 13:47:29;;;;;;;17.15;4.70;;;6.60;99.90;;;;;;5056622;28;20040;-75
2023/01/16 13:50:18;;;;;;;14.38;5.32;;;6.70;99.90;;;;;;5062211;28;20031;-75
2023/01/16 13:52:44;;;;;;;11.35;4.70;;;6.70;99.90;;;;;;5067267;28;20071;-76
2023/01/16 13:55:42;;;;;;;18.33;4.68;;;6.70;99.90;;;;;;5065247;28;20054;-76
2023/01/16 13:58:16;;;;;;;11.18;5.57;;;6.80;99.90;;;;;;5071983;28;20452;-76
2023/01/16 14:00:43;;;;;;;11.25;5.03;;;6.70;99.90;;;;;;5079198;28;20108;-76
2023/01/16 14:03:24;;;;;;;8.68;3.70;;;6.70;99.90;;;;;;5063000;28;20029;-77
2023/01/16 14:06:24;;;;;;;9.27;4.28;;;6.70;99.90;;;;;;5073246;28;20024;-75
2023/01/16 14:09:04;;;;;;;9.27;4.38;;;6.70;99.90;;;;;;5069758;28;20043;-77
2023/01/16 14:11:38;;;;;;;9.48;3.92;;;6.70;99.90;;;;;;5060176;28;20377;-76
2023/01/16 14:17:18;;;;;;;6.53;3.40;;;6.80;99.90;;;;;;5056349;28;20484;-76
2023/01/16 14:19:54;;;;;;;9.77;3.95;;;6.70;99.90;;;;;;5066003;28;20051;-76